sensor_id;sensor_type;location;lat;lon;timestamp;temperature;humidity
63537;DHT22;49686;51.880;5.632;2022-08-01T00:01:57;16.10;99.90
63537;DHT22;49686;51.880;5.632;2022-08-01T00:04:25;16.10;99.90
63537;DHT22;49686;51.880;5.632;2022-08-01T00:06:53;16.10;99.90
63537;DHT22;49686;51.880;5.632;2022-08-01T00:09:20;16.10;99.90
63537;DHT22;49686;51.880;5.632;2022-08-01T00:11:50;16.10;99.90
63537;DHT22;49686;51.880;5.632;2022-08-01T00:14:26;16.10;99.90
63537;DHT22;49686;51.880;5.632;2022-08-01T00:16:58;16.10;99.90
63537;DHT22;49686;51.880;5.632;2022-08-01T00:19:34;16.10;99.90
63537;DHT22;49686;51.880;5.632;2022-08-01T00:22:01;16.10;99.90
63537;DHT22;49686;51.880;5.632;2022-08-01T00:24:28;16.10;99.90
63537;DHT22;49686;51.880;5.632;2022-08-01T00:26:56;16.10;99.90
63537;DHT22;49686;51.880;5.632;2022-08-01T00:29:22;16.10;99.90
63537;DHT22;49686;51.880;5.632;2022-08-01T00:32:10;16.00;99.90
63537;DHT22;49686;51.880;5.632;2022-08-01T00:34:38;16.00;99.90
63537;DHT22;49686;51.880;5.632;2022-08-01T00:37:05;16.00;99.90
63537;DHT22;49686;51.880;5.632;2022-08-01T00:39:32;16.00;99.90
63537;DHT22;49686;51.880;5.632;2022-08-01T00:41:59;16.00;99.90
63537;DHT22;49686;51.880;5.632;2022-08-01T00:44:26;16.00;99.90
63537;DHT22;49686;51.880;5.632;2022-08-01T00:46:54;16.10;99.90
63537;DHT22;49686;51.880;5.632;2022-08-01T00:49:20;16.10;99.90
63537;DHT22;49686;51.880;5.632;2022-08-01T00:51:49;16.00;99.90
63537;DHT22;49686;51.880;5.632;2022-08-01T00:54:16;16.00;99.90
63537;DHT22;49686;51.880;5.632;2022-08-01T00:56:43;16.00;99.90
63537;DHT22;49686;51.880;5.632;2022-08-01T00:59:10;16.00;99.90
63537;DHT22;49686;51.880;5.632;2022-08-01T01:01:40;16.00;99.90
63537;DHT22;49686;51.880;5.632;2022-08-01T01:04:12;15.90;99.90
63537;DHT22;49686;51.880;5.632;2022-08-01T01:06:41;15.90;99.90
63537;DHT22;49686;51.880;5.632;2022-08-01T01:09:15;16.00;99.90
63537;DHT22;49686;51.880;5.632;2022-08-01T01:11:44;15.90;99.90
63537;DHT22;49686;51.880;5.632;2022-08-01T01:14:13;16.00;99.90
63537;DHT22;49686;51.880;5.632;2022-08-01T01:16:42;15.90;99.90
63537;DHT22;49686;51.880;5.632;2022-08-01T01:19:10;16.00;99.90
63537;DHT22;49686;51.880;5.632;2022-08-01T01:21:50;15.90;99.90
63537;DHT22;49686;51.880;5.632;2022-08-01T01:24:27;16.00;99.90
63537;DHT22;49686;51.880;5.632;2022-08-01T01:26:56;16.00;99.90
63537;DHT22;49686;51.880;5.632;2022-08-01T01:29:25;16.00;99.90
63537;DHT22;49686;51.880;5.632;2022-08-01T01:31:55;16.00;99.90
63537;DHT22;49686;51.880;5.632;2022-08-01T01:34:22;16.00;99.90
63537;DHT22;49686;51.880;5.632;2022-08-01T01:36:51;16.00;99.90
63537;DHT22;49686;51.880;5.632;2022-08-01T01:39:18;16.00;99.90
63537;DHT22;49686;51.880;5.632;2022-08-01T01:41:46;16.00;99.90
63537;DHT22;49686;51.880;5.632;2022-08-01T01:44:14;16.00;99.90
63537;DHT22;49686;51.880;5.632;2022-08-01T01:46:43;16.00;99.90
63537;DHT22;49686;51.880;5.632;2022-08-01T01:49:11;16.00;99.90
63537;DHT22;49686;51.880;5.632;2022-08-01T01:51:38;16.00;99.90
63537;DHT22;49686;51.880;5.632;2022-08-01T01:54:19;15.90;99.90
63537;DHT22;49686;51.880;5.632;2022-08-01T01:56:46;15.90;99.90
63537;DHT22;49686;51.880;5.632;2022-08-01T01:59:14;16.00;99.90
63537;DHT22;49686;51.880;5.632;2022-08-01T02:01:53;15.90;99.90
63537;DHT22;49686;51.880;5.632;2022-08-01T02:04:32;15.90;99.90
63537;DHT22;49686;51.880;5.632;2022-08-01T02:07:01;15.90;99.90
63537;DHT22;49686;51.880;5.632;2022-08-01T02:09:28;15.90;99.90
63537;DHT22;49686;51.880;5.632;2022-08-01T02:11:55;15.90;99.90
63537;DHT22;49686;51.880;5.632;2022-08-01T02:14:39;15.80;99.90
63537;DHT22;49686;51.880;5.632;2022-08-01T02:17:08;15.80;99.90
63537;DHT22;49686;51.880;5.632;2022-08-01T02:19:35;15.80;99.90
63537;DHT22;49686;51.880;5.632;2022-08-01T02:22:06;15.80;99.90
63537;DHT22;49686;51.880;5.632;2022-08-01T02:24:35;15.70;99.90
63537;DHT22;49686;51.880;5.632;2022-08-01T02:27:04;15.60;99.90
63537;DHT22;49686;51.880;5.632;2022-08-01T02:29:34;15.60;99.90
63537;DHT22;49686;51.880;5.632;2022-08-01T02:32:04;15.60;99.90
63537;DHT22;49686;51.880;5.632;2022-08-01T02:34:32;15.60;99.90
63537;DHT22;49686;51.880;5.632;2022-08-01T02:37:01;15.50;99.90
63537;DHT22;49686;51.880;5.632;2022-08-01T02:39:29;15.40;99.90
63537;DHT22;49686;51.880;5.632;2022-08-01T02:41:57;15.40;99.90
63537;DHT22;49686;51.880;5.632;2022-08-01T02:44:26;15.20;99.90
63537;DHT22;49686;51.880;5.632;2022-08-01T02:46:56;15.20;99.90
63537;DHT22;49686;51.880;5.632;2022-08-01T02:49:24;15.10;99.90
63537;DHT22;49686;51.880;5.632;2022-08-01T02:51:53;15.10;99.90
63537;DHT22;49686;51.880;5.632;2022-08-01T02:54:21;15.10;99.90
63537;DHT22;49686;51.880;5.632;2022-08-01T02:56:49;15.10;99.90
63537;DHT22;49686;51.880;5.632;2022-08-01T02:59:17;15.10;99.90
63537;DHT22;49686;51.880;5.632;2022-08-01T03:01:47;15.20;99.90
63537;DHT22;49686;51.880;5.632;2022-08-01T03:04:16;15.20;99.90
63537;DHT22;49686;51.880;5.632;2022-08-01T03:06:44;15.10;99.90
63537;DHT22;49686;51.880;5.632;2022-08-01T03:09:13;15.10;99.90
63537;DHT22;49686;51.880;5.632;2022-08-01T03:11:43;15.00;99.90
63537;DHT22;49686;51.880;5.632;2022-08-01T03:14:11;14.90;99.90
63537;DHT22;49686;51.880;5.632;2022-08-01T03:16:38;15.00;99.90
63537;DHT22;49686;51.880;5.632;2022-08-01T03:19:06;15.00;99.90
63537;DHT22;49686;51.880;5.632;2022-08-01T03:21:34;15.00;99.90
63537;DHT22;49686;51.880;5.632;2022-08-01T03:24:01;15.00;99.90
63537;DHT22;49686;51.880;5.632;2022-08-01T03:26:33;14.90;99.90
63537;DHT22;49686;51.880;5.632;2022-08-01T03:29:02;14.90;99.90
63537;DHT22;49686;51.880;5.632;2022-08-01T03:31:29;14.90;99.90
63537;DHT22;49686;51.880;5.632;2022-08-01T03:33:56;15.00;99.90
63537;DHT22;49686;51.880;5.632;2022-08-01T03:36:26;14.90;99.90
63537;DHT22;49686;51.880;5.632;2022-08-01T03:38:53;15.00;99.90
63537;DHT22;49686;51.880;5.632;2022-08-01T03:41:23;15.00;99.90
63537;DHT22;49686;51.880;5.632;2022-08-01T03:43:54;15.10;99.90
63537;DHT22;49686;51.880;5.632;2022-08-01T03:46:26;15.00;99.90
63537;DHT22;49686;51.880;5.632;2022-08-01T03:48:55;15.10;99.90
63537;DHT22;49686;51.880;5.632;2022-08-01T03:51:24;15.20;99.90
63537;DHT22;49686;51.880;5.632;2022-08-01T03:53:51;15.10;99.90
63537;DHT22;49686;51.880;5.632;2022-08-01T03:56:20;15.20;99.90
63537;DHT22;49686;51.880;5.632;2022-08-01T03:58:47;15.10;99.90
63537;DHT22;49686;51.880;5.632;2022-08-01T04:01:17;15.10;99.90
63537;DHT22;49686;51.880;5.632;2022-08-01T04:03:44;14.90;99.90
63537;DHT22;49686;51.880;5.632;2022-08-01T04:06:11;14.90;99.90
63537;DHT22;49686;51.880;5.632;2022-08-01T04:08:38;14.90;99.90
63537;DHT22;49686;51.880;5.632;2022-08-01T04:11:05;14.80;99.90
63537;DHT22;49686;51.880;5.632;2022-08-01T04:13:32;14.70;99.90
63537;DHT22;49686;51.880;5.632;2022-08-01T04:16:04;14.60;99.90
63537;DHT22;49686;51.880;5.632;2022-08-01T04:18:32;14.70;99.90
63537;DHT22;49686;51.880;5.632;2022-08-01T04:20:59;14.70;99.90
63537;DHT22;49686;51.880;5.632;2022-08-01T04:23:26;14.80;99.90
63537;DHT22;49686;51.880;5.632;2022-08-01T04:25:53;14.90;99.90
63537;DHT22;49686;51.880;5.632;2022-08-01T04:28:22;15.00;99.90
63537;DHT22;49686;51.880;5.632;2022-08-01T04:30:49;15.10;99.90
63537;DHT22;49686;51.880;5.632;2022-08-01T04:33:16;15.10;99.90
63537;DHT22;49686;51.880;5.632;2022-08-01T04:35:46;15.10;99.90
63537;DHT22;49686;51.880;5.632;2022-08-01T04:38:30;15.10;99.90
63537;DHT22;49686;51.880;5.632;2022-08-01T04:40:58;15.10;99.90
63537;DHT22;49686;51.880;5.632;2022-08-01T04:43:35;15.00;99.90
63537;DHT22;49686;51.880;5.632;2022-08-01T04:46:02;15.20;99.90
63537;DHT22;49686;51.880;5.632;2022-08-01T04:48:29;15.30;99.90
63537;DHT22;49686;51.880;5.632;2022-08-01T04:50:59;15.40;99.90
63537;DHT22;49686;51.880;5.632;2022-08-01T04:53:26;15.50;99.90
63537;DHT22;49686;51.880;5.632;2022-08-01T04:55:53;15.50;99.90
63537;DHT22;49686;51.880;5.632;2022-08-01T04:58:20;15.60;99.90
63537;DHT22;49686;51.880;5.632;2022-08-01T05:00:47;15.60;99.90
63537;DHT22;49686;51.880;5.632;2022-08-01T05:03:14;15.60;99.90
63537;DHT22;49686;51.880;5.632;2022-08-01T05:05:40;15.60;99.90
63537;DHT22;49686;51.880;5.632;2022-08-01T05:08:09;16.00;99.90
63537;DHT22;49686;51.880;5.632;2022-08-01T05:10:35;16.20;99.90
63537;DHT22;49686;51.880;5.632;2022-08-01T05:13:02;16.00;99.90
63537;DHT22;49686;51.880;5.632;2022-08-01T05:15:29;16.00;99.90
63537;DHT22;49686;51.880;5.632;2022-08-01T05:17:56;15.90;99.90
63537;DHT22;49686;51.880;5.632;2022-08-01T05:20:23;15.90;99.90
63537;DHT22;49686;51.880;5.632;2022-08-01T05:22:50;15.90;99.90
63537;DHT22;49686;51.880;5.632;2022-08-01T05:25:18;15.90;99.90
63537;DHT22;49686;51.880;5.632;2022-08-01T05:28:05;16.00;99.90
63537;DHT22;49686;51.880;5.632;2022-08-01T05:30:32;15.90;99.90
63537;DHT22;49686;51.880;5.632;2022-08-01T05:32:59;16.00;99.90
63537;DHT22;49686;51.880;5.632;2022-08-01T05:35:26;16.00;99.90
63537;DHT22;49686;51.880;5.632;2022-08-01T05:38:12;16.00;99.90
63537;DHT22;49686;51.880;5.632;2022-08-01T05:40:42;16.20;99.90
63537;DHT22;49686;51.880;5.632;2022-08-01T05:43:09;16.30;99.90
63537;DHT22;49686;51.880;5.632;2022-08-01T05:45:35;16.60;99.90
63537;DHT22;49686;51.880;5.632;2022-08-01T05:48:03;16.70;99.90
63537;DHT22;49686;51.880;5.632;2022-08-01T05:50:29;16.90;99.90
63537;DHT22;49686;51.880;5.632;2022-08-01T05:52:56;16.90;99.90
63537;DHT22;49686;51.880;5.632;2022-08-01T05:55:23;16.80;99.90
63537;DHT22;49686;51.880;5.632;2022-08-01T05:57:51;16.90;99.90
63537;DHT22;49686;51.880;5.632;2022-08-01T06:00:18;16.70;99.90
63537;DHT22;49686;51.880;5.632;2022-08-01T06:02:51;16.70;99.90
63537;DHT22;49686;51.880;5.632;2022-08-01T06:05:17;16.90;99.90
63537;DHT22;49686;51.880;5.632;2022-08-01T06:07:45;16.90;99.90
63537;DHT22;49686;51.880;5.632;2022-08-01T06:10:11;16.80;99.90
63537;DHT22;49686;51.880;5.632;2022-08-01T06:12:38;16.70;99.90
63537;DHT22;49686;51.880;5.632;2022-08-01T06:15:07;16.50;99.90
63537;DHT22;49686;51.880;5.632;2022-08-01T06:17:34;16.50;99.90
63537;DHT22;49686;51.880;5.632;2022-08-01T06:20:01;16.60;99.90
63537;DHT22;49686;51.880;5.632;2022-08-01T06:22:28;16.50;99.90
63537;DHT22;49686;51.880;5.632;2022-08-01T06:24:56;16.50;99.90
63537;DHT22;49686;51.880;5.632;2022-08-01T06:27:23;16.30;99.90
63537;DHT22;49686;51.880;5.632;2022-08-01T06:29:50;16.40;99.90
63537;DHT22;49686;51.880;5.632;2022-08-01T06:32:21;16.30;99.90
63537;DHT22;49686;51.880;5.632;2022-08-01T06:34:53;16.20;99.90
63537;DHT22;49686;51.880;5.632;2022-08-01T06:37:20;16.30;99.90
63537;DHT22;49686;51.880;5.632;2022-08-01T06:39:46;16.30;99.90
63537;DHT22;49686;51.880;5.632;2022-08-01T06:42:13;16.40;99.90
63537;DHT22;49686;51.880;5.632;2022-08-01T06:44:40;16.40;99.90
63537;DHT22;49686;51.880;5.632;2022-08-01T06:47:07;16.50;99.90
63537;DHT22;49686;51.880;5.632;2022-08-01T06:49:35;16.50;99.90
63537;DHT22;49686;51.880;5.632;2022-08-01T06:52:02;16.70;99.90
63537;DHT22;49686;51.880;5.632;2022-08-01T06:54:30;16.90;99.90
63537;DHT22;49686;51.880;5.632;2022-08-01T06:56:57;17.10;99.90
63537;DHT22;49686;51.880;5.632;2022-08-01T06:59:24;17.20;99.90
63537;DHT22;49686;51.880;5.632;2022-08-01T07:01:50;17.20;99.90
63537;DHT22;49686;51.880;5.632;2022-08-01T07:04:17;17.40;99.90
63537;DHT22;49686;51.880;5.632;2022-08-01T07:06:45;17.40;99.90
63537;DHT22;49686;51.880;5.632;2022-08-01T07:09:12;17.30;99.90
63537;DHT22;49686;51.880;5.632;2022-08-01T07:11:40;17.30;99.90
63537;DHT22;49686;51.880;5.632;2022-08-01T07:14:07;17.30;99.90
63537;DHT22;49686;51.880;5.632;2022-08-01T07:16:34;17.30;99.90
63537;DHT22;49686;51.880;5.632;2022-08-01T07:19:01;17.20;99.90
63537;DHT22;49686;51.880;5.632;2022-08-01T07:21:28;17.20;99.90
63537;DHT22;49686;51.880;5.632;2022-08-01T07:24:10;17.30;99.90
63537;DHT22;49686;51.880;5.632;2022-08-01T07:26:40;17.00;99.90
63537;DHT22;49686;51.880;5.632;2022-08-01T07:29:19;17.00;99.90
63537;DHT22;49686;51.880;5.632;2022-08-01T07:31:45;17.00;99.90
63537;DHT22;49686;51.880;5.632;2022-08-01T07:34:12;17.10;99.90
63537;DHT22;49686;51.880;5.632;2022-08-01T07:36:39;17.00;99.90
63537;DHT22;49686;51.880;5.632;2022-08-01T07:39:06;16.80;99.90
63537;DHT22;49686;51.880;5.632;2022-08-01T07:41:34;16.60;99.90
63537;DHT22;49686;51.880;5.632;2022-08-01T07:44:21;16.60;99.90
63537;DHT22;49686;51.880;5.632;2022-08-01T07:46:48;16.90;99.90
63537;DHT22;49686;51.880;5.632;2022-08-01T07:49:14;17.00;99.90
63537;DHT22;49686;51.880;5.632;2022-08-01T07:51:42;17.10;99.90
63537;DHT22;49686;51.880;5.632;2022-08-01T07:54:28;17.20;99.90
63537;DHT22;49686;51.880;5.632;2022-08-01T07:57:01;17.20;99.90
63537;DHT22;49686;51.880;5.632;2022-08-01T07:59:28;17.30;99.90
63537;DHT22;49686;51.880;5.632;2022-08-01T08:01:55;17.40;99.90
63537;DHT22;49686;51.880;5.632;2022-08-01T08:04:22;17.60;99.90
63537;DHT22;49686;51.880;5.632;2022-08-01T08:06:49;17.70;99.90
63537;DHT22;49686;51.880;5.632;2022-08-01T08:09:15;17.50;99.90
63537;DHT22;49686;51.880;5.632;2022-08-01T08:11:43;17.70;99.90
63537;DHT22;49686;51.880;5.632;2022-08-01T08:14:16;17.70;99.90
63537;DHT22;49686;51.880;5.632;2022-08-01T08:16:44;17.70;99.90
63537;DHT22;49686;51.880;5.632;2022-08-01T08:19:11;17.80;99.90
63537;DHT22;49686;51.880;5.632;2022-08-01T08:21:37;17.90;99.90
63537;DHT22;49686;51.880;5.632;2022-08-01T08:24:05;17.60;99.90
63537;DHT22;49686;51.880;5.632;2022-08-01T08:26:32;17.70;99.90
63537;DHT22;49686;51.880;5.632;2022-08-01T08:28:59;17.30;99.90
63537;DHT22;49686;51.880;5.632;2022-08-01T08:31:27;17.10;99.90
63537;DHT22;49686;51.880;5.632;2022-08-01T08:34:14;16.80;99.90
63537;DHT22;49686;51.880;5.632;2022-08-01T08:36:42;16.70;99.90
63537;DHT22;49686;51.880;5.632;2022-08-01T08:39:13;16.60;99.90
63537;DHT22;49686;51.880;5.632;2022-08-01T08:41:40;16.50;99.90
63537;DHT22;49686;51.880;5.632;2022-08-01T08:44:08;16.50;99.90
63537;DHT22;49686;51.880;5.632;2022-08-01T08:46:40;16.60;99.90
63537;DHT22;49686;51.880;5.632;2022-08-01T08:49:08;16.70;99.90
63537;DHT22;49686;51.880;5.632;2022-08-01T08:51:37;16.70;99.90
63537;DHT22;49686;51.880;5.632;2022-08-01T08:54:04;16.50;99.90
63537;DHT22;49686;51.880;5.632;2022-08-01T08:56:32;16.40;99.90
63537;DHT22;49686;51.880;5.632;2022-08-01T08:59:00;16.60;99.90
63537;DHT22;49686;51.880;5.632;2022-08-01T09:01:28;17.10;99.90
63537;DHT22;49686;51.880;5.632;2022-08-01T09:03:56;17.20;99.90
63537;DHT22;49686;51.880;5.632;2022-08-01T09:06:23;17.50;99.90
63537;DHT22;49686;51.880;5.632;2022-08-01T09:08:53;17.70;99.90
63537;DHT22;49686;51.880;5.632;2022-08-01T09:11:20;17.70;99.90
63537;DHT22;49686;51.880;5.632;2022-08-01T09:14:00;18.00;99.90
63537;DHT22;49686;51.880;5.632;2022-08-01T09:16:28;17.70;99.90
63537;DHT22;49686;51.880;5.632;2022-08-01T09:19:05;18.00;99.90
63537;DHT22;49686;51.880;5.632;2022-08-01T09:21:55;18.20;99.90
63537;DHT22;49686;51.880;5.632;2022-08-01T09:24:24;18.30;99.90
63537;DHT22;49686;51.880;5.632;2022-08-01T09:26:57;18.30;99.90
63537;DHT22;49686;51.880;5.632;2022-08-01T09:29:25;18.30;99.90
63537;DHT22;49686;51.880;5.632;2022-08-01T09:32:04;18.60;99.90
63537;DHT22;49686;51.880;5.632;2022-08-01T09:34:33;17.80;99.90
63537;DHT22;49686;51.880;5.632;2022-08-01T09:37:00;17.10;99.90
63537;DHT22;49686;51.880;5.632;2022-08-01T09:39:29;16.40;99.90
63537;DHT22;49686;51.880;5.632;2022-08-01T09:41:57;16.10;99.90
63537;DHT22;49686;51.880;5.632;2022-08-01T09:44:36;15.90;99.90
63537;DHT22;49686;51.880;5.632;2022-08-01T09:47:09;16.00;99.90
63537;DHT22;49686;51.880;5.632;2022-08-01T09:49:38;16.20;99.90
63537;DHT22;49686;51.880;5.632;2022-08-01T09:52:21;16.30;99.90
63537;DHT22;49686;51.880;5.632;2022-08-01T09:54:54;16.60;99.90
63537;DHT22;49686;51.880;5.632;2022-08-01T09:57:22;16.40;99.90
63537;DHT22;49686;51.880;5.632;2022-08-01T09:59:49;16.50;99.90
63537;DHT22;49686;51.880;5.632;2022-08-01T10:02:28;16.40;99.90
63537;DHT22;49686;51.880;5.632;2022-08-01T10:04:56;16.20;99.90
63537;DHT22;49686;51.880;5.632;2022-08-01T10:07:29;16.10;99.90
63537;DHT22;49686;51.880;5.632;2022-08-01T10:10:11;15.90;99.90
63537;DHT22;49686;51.880;5.632;2022-08-01T10:12:41;15.90;99.90
63537;DHT22;49686;51.880;5.632;2022-08-01T10:15:11;15.90;99.90
63537;DHT22;49686;51.880;5.632;2022-08-01T10:17:40;16.10;99.90
63537;DHT22;49686;51.880;5.632;2022-08-01T10:20:18;16.10;99.90
63537;DHT22;49686;51.880;5.632;2022-08-01T10:22:58;16.30;99.90
63537;DHT22;49686;51.880;5.632;2022-08-01T10:25:27;16.30;99.90
63537;DHT22;49686;51.880;5.632;2022-08-01T10:28:14;16.30;99.90
63537;DHT22;49686;51.880;5.632;2022-08-01T10:30:43;16.50;99.90
63537;DHT22;49686;51.880;5.632;2022-08-01T10:33:12;16.60;99.90
63537;DHT22;49686;51.880;5.632;2022-08-01T10:35:42;16.60;99.90
63537;DHT22;49686;51.880;5.632;2022-08-01T10:38:14;16.70;99.90
63537;DHT22;49686;51.880;5.632;2022-08-01T10:40:41;16.70;99.90
63537;DHT22;49686;51.880;5.632;2022-08-01T10:43:09;17.30;99.90
63537;DHT22;49686;51.880;5.632;2022-08-01T10:45:36;17.50;99.90
63537;DHT22;49686;51.880;5.632;2022-08-01T10:48:03;17.80;99.90
63537;DHT22;49686;51.880;5.632;2022-08-01T10:50:33;17.60;99.90
63537;DHT22;49686;51.880;5.632;2022-08-01T10:53:07;17.80;99.90
63537;DHT22;49686;51.880;5.632;2022-08-01T10:55:46;18.00;99.90
63537;DHT22;49686;51.880;5.632;2022-08-01T10:58:19;18.10;99.90
63537;DHT22;49686;51.880;5.632;2022-08-01T11:00:46;18.00;99.90
63537;DHT22;49686;51.880;5.632;2022-08-01T11:03:13;18.20;99.90
63537;DHT22;49686;51.880;5.632;2022-08-01T11:05:40;18.20;99.90
63537;DHT22;49686;51.880;5.632;2022-08-01T11:08:21;18.10;99.90
63537;DHT22;49686;51.880;5.632;2022-08-01T11:10:49;18.50;99.90
63537;DHT22;49686;51.880;5.632;2022-08-01T11:18:50;19.00;99.90
63537;DHT22;49686;51.880;5.632;2022-08-01T11:21:18;19.50;99.90
63537;DHT22;49686;51.880;5.632;2022-08-01T11:24:06;19.10;99.90
63537;DHT22;49686;51.880;5.632;2022-08-01T11:26:33;19.50;99.90
63537;DHT22;49686;51.880;5.632;2022-08-01T11:29:10;19.50;99.90
63537;DHT22;49686;51.880;5.632;2022-08-01T11:31:47;19.60;99.90
63537;DHT22;49686;51.880;5.632;2022-08-01T11:34:15;20.10;99.90
63537;DHT22;49686;51.880;5.632;2022-08-01T11:36:42;20.10;99.90
63537;DHT22;49686;51.880;5.632;2022-08-01T11:39:44;19.90;99.90
63537;DHT22;49686;51.880;5.632;2022-08-01T11:42:32;19.60;99.90
63537;DHT22;49686;51.880;5.632;2022-08-01T11:45:00;20.00;99.90
63537;DHT22;49686;51.880;5.632;2022-08-01T11:47:43;19.60;99.90
63537;DHT22;49686;51.880;5.632;2022-08-01T11:50:30;20.00;99.90
63537;DHT22;49686;51.880;5.632;2022-08-01T11:52:57;19.80;99.90
63537;DHT22;49686;51.880;5.632;2022-08-01T11:55:26;19.80;99.90
63537;DHT22;49686;51.880;5.632;2022-08-01T11:57:58;19.70;99.90
63537;DHT22;49686;51.880;5.632;2022-08-01T12:00:26;19.50;99.90
63537;DHT22;49686;51.880;5.632;2022-08-01T12:02:56;19.60;99.90
63537;DHT22;49686;51.880;5.632;2022-08-01T12:05:25;20.20;99.90
63537;DHT22;49686;51.880;5.632;2022-08-01T12:07:53;20.00;99.90
63537;DHT22;49686;51.880;5.632;2022-08-01T12:10:21;20.30;99.90
63537;DHT22;49686;51.880;5.632;2022-08-01T12:12:50;20.40;99.90
63537;DHT22;49686;51.880;5.632;2022-08-01T12:15:18;21.00;99.90
63537;DHT22;49686;51.880;5.632;2022-08-01T12:17:45;20.50;99.90
63537;DHT22;49686;51.880;5.632;2022-08-01T12:20:27;20.30;99.90
63537;DHT22;49686;51.880;5.632;2022-08-01T12:22:56;20.50;99.90
63537;DHT22;49686;51.880;5.632;2022-08-01T12:25:23;20.10;99.90
63537;DHT22;49686;51.880;5.632;2022-08-01T12:27:51;20.20;99.90
63537;DHT22;49686;51.880;5.632;2022-08-01T12:30:22;20.20;99.90
63537;DHT22;49686;51.880;5.632;2022-08-01T12:32:49;20.40;99.90
63537;DHT22;49686;51.880;5.632;2022-08-01T12:35:17;20.60;99.90
63537;DHT22;49686;51.880;5.632;2022-08-01T12:37:45;20.80;99.90
63537;DHT22;49686;51.880;5.632;2022-08-01T12:40:15;21.20;99.90
63537;DHT22;49686;51.880;5.632;2022-08-01T12:42:43;21.10;99.90
63537;DHT22;49686;51.880;5.632;2022-08-01T12:45:13;20.90;99.90
63537;DHT22;49686;51.880;5.632;2022-08-01T12:47:40;21.00;99.90
63537;DHT22;49686;51.880;5.632;2022-08-01T12:50:10;20.20;99.90
63537;DHT22;49686;51.880;5.632;2022-08-01T12:52:37;21.40;99.90
63537;DHT22;49686;51.880;5.632;2022-08-01T12:55:13;21.50;99.90
63537;DHT22;49686;51.880;5.632;2022-08-01T12:57:41;20.90;99.90
63537;DHT22;49686;51.880;5.632;2022-08-01T13:00:10;21.10;99.90
63537;DHT22;49686;51.880;5.632;2022-08-01T13:02:39;21.20;99.90
63537;DHT22;49686;51.880;5.632;2022-08-01T13:05:07;21.60;99.90
63537;DHT22;49686;51.880;5.632;2022-08-01T13:07:37;21.40;99.90
63537;DHT22;49686;51.880;5.632;2022-08-01T13:10:11;22.50;99.90
63537;DHT22;49686;51.880;5.632;2022-08-01T13:12:38;22.40;99.90
63537;DHT22;49686;51.880;5.632;2022-08-01T13:15:22;22.00;99.90
63537;DHT22;49686;51.880;5.632;2022-08-01T13:17:51;21.30;99.90
63537;DHT22;49686;51.880;5.632;2022-08-01T13:20:25;22.10;99.90
63537;DHT22;49686;51.880;5.632;2022-08-01T13:22:53;21.30;99.80
63537;DHT22;49686;51.880;5.632;2022-08-01T13:25:19;21.80;99.90
63537;DHT22;49686;51.880;5.632;2022-08-01T13:27:49;22.70;99.40
63537;DHT22;49686;51.880;5.632;2022-08-01T13:30:36;22.00;99.90
63537;DHT22;49686;51.880;5.632;2022-08-01T13:33:04;22.60;98.90
63537;DHT22;49686;51.880;5.632;2022-08-01T13:35:31;22.30;99.90
63537;DHT22;49686;51.880;5.632;2022-08-01T13:37:58;21.50;99.90
63537;DHT22;49686;51.880;5.632;2022-08-01T13:40:26;22.00;99.80
63537;DHT22;49686;51.880;5.632;2022-08-01T13:42:53;20.80;99.90
63537;DHT22;49686;51.880;5.632;2022-08-01T13:45:20;20.70;99.90
63537;DHT22;49686;51.880;5.632;2022-08-01T13:47:48;21.30;99.90
63537;DHT22;49686;51.880;5.632;2022-08-01T13:50:36;21.20;99.90
63537;DHT22;49686;51.880;5.632;2022-08-01T13:53:04;21.00;99.90
63537;DHT22;49686;51.880;5.632;2022-08-01T13:55:31;21.30;99.90
63537;DHT22;49686;51.880;5.632;2022-08-01T13:58:01;21.40;99.50
63537;DHT22;49686;51.880;5.632;2022-08-01T14:00:28;21.70;98.20
63537;DHT22;49686;51.880;5.632;2022-08-01T14:02:55;21.40;98.90
63537;DHT22;49686;51.880;5.632;2022-08-01T14:05:22;21.60;97.30
63537;DHT22;49686;51.880;5.632;2022-08-01T14:07:50;21.20;98.40
63537;DHT22;49686;51.880;5.632;2022-08-01T14:10:22;21.80;96.80
63537;DHT22;49686;51.880;5.632;2022-08-01T14:12:49;21.50;96.00
63537;DHT22;49686;51.880;5.632;2022-08-01T14:15:16;22.20;94.80
63537;DHT22;49686;51.880;5.632;2022-08-01T14:18:04;21.30;95.10
63537;DHT22;49686;51.880;5.632;2022-08-01T14:27:06;22.00;92.80
63537;DHT22;49686;51.880;5.632;2022-08-01T14:29:32;21.90;92.80
63537;DHT22;49686;51.880;5.632;2022-08-01T14:32:20;22.50;92.60
63537;DHT22;49686;51.880;5.632;2022-08-01T14:34:54;22.20;93.30
63537;DHT22;49686;51.880;5.632;2022-08-01T14:37:21;22.00;92.60
63537;DHT22;49686;51.880;5.632;2022-08-01T14:39:54;22.20;92.20
63537;DHT22;49686;51.880;5.632;2022-08-01T14:42:22;21.60;91.00
63537;DHT22;49686;51.880;5.632;2022-08-01T14:45:02;22.50;90.20
63537;DHT22;49686;51.880;5.632;2022-08-01T14:47:29;22.20;90.30
63537;DHT22;49686;51.880;5.632;2022-08-01T14:50:06;21.60;90.30
63537;DHT22;49686;51.880;5.632;2022-08-01T14:52:35;21.70;90.40
63537;DHT22;49686;51.880;5.632;2022-08-01T14:55:02;21.50;90.90
63537;DHT22;49686;51.880;5.632;2022-08-01T14:57:30;21.40;90.70
63537;DHT22;49686;51.880;5.632;2022-08-01T14:59:57;21.80;88.60
63537;DHT22;49686;51.880;5.632;2022-08-01T15:02:24;22.30;89.00
63537;DHT22;49686;51.880;5.632;2022-08-01T15:08:01;21.80;88.90
63537;DHT22;49686;51.880;5.632;2022-08-01T15:10:28;23.10;84.50
63537;DHT22;49686;51.880;5.632;2022-08-01T15:12:56;22.60;84.90
63537;DHT22;49686;51.880;5.632;2022-08-01T15:15:23;22.20;85.50
63537;DHT22;49686;51.880;5.632;2022-08-01T15:17:50;22.20;83.50
63537;DHT22;49686;51.880;5.632;2022-08-01T16:38:48;21.20;79.20
63537;DHT22;49686;51.880;5.632;2022-08-01T16:41:15;21.40;78.20
63537;DHT22;49686;51.880;5.632;2022-08-01T16:43:46;20.90;79.70
63537;DHT22;49686;51.880;5.632;2022-08-01T16:46:21;20.50;78.20
63537;DHT22;49686;51.880;5.632;2022-08-01T16:48:59;20.90;79.30
63537;DHT22;49686;51.880;5.632;2022-08-01T16:51:27;20.90;78.10
63537;DHT22;49686;51.880;5.632;2022-08-01T16:53:59;21.20;77.00
63537;DHT22;49686;51.880;5.632;2022-08-01T16:59:30;20.70;77.00
63537;DHT22;49686;51.880;5.632;2022-08-01T17:01:59;20.80;78.20
63537;DHT22;49686;51.880;5.632;2022-08-01T17:04:28;20.40;81.70
63537;DHT22;49686;51.880;5.632;2022-08-01T17:06:54;20.20;81.70
63537;DHT22;49686;51.880;5.632;2022-08-01T17:09:23;20.00;80.40
63537;DHT22;49686;51.880;5.632;2022-08-01T17:14:53;19.90;81.00
63537;DHT22;49686;51.880;5.632;2022-08-01T17:17:20;19.90;78.40
63537;DHT22;49686;51.880;5.632;2022-08-01T17:19:47;19.60;80.30
63537;DHT22;49686;51.880;5.632;2022-08-01T17:22:14;19.60;78.20
63537;DHT22;49686;51.880;5.632;2022-08-01T17:24:48;19.50;78.40
63537;DHT22;49686;51.880;5.632;2022-08-01T17:27:16;19.50;78.80